aviador You're here:

ETIK Decoded Metar

ILLESHEIM in GERMANY
Report Time2017-11-22 20:56:00
UTC Time2017-11-22 21:52:50
Flight Rules vfr VFR
Wind210° at 04 kt
W.Rank210° ranks 7
Current wind is below 210° avg. (5.7)
Visibility9999 m
Phenomena:N/A
Clouds:N/A
Expected CloudBase > 800 ft AGL from Temp-Dew spread
CeilingNone
Temp06°C (ISA -7)
Dew Point04°C (87% RH)
AAT3.2°C
QNH1011 hPa
Density Alt420 ft
Elevation1,066 ft
Report Wrong Elevation
Raw Report
METAR ETIK 222056Z AUTO 21004KT 9999 CLR 06/04 A2985 RMK AO2 SLP119
T00590036 57011=

Extra information for ETIK:More info

Metar Taf Metar & Taf Last 4 Metars F.Rules Stats Wind Profile Meteogram Temp Stats Airport Information Weather charts Add Link Nearby VenuesMetar ALERT Operation Metar Decoded Social comments